Time;durP1;ratioP1;P1;durP2;ratioP2;P2;SDS_P1;SDS_P2;PMS_P1;PMS_P2;Temp;Humidity;BMP_temperature;BMP_pressure;BME280_temperature;BME280_humidity;BME280_pressure;Samples;Min_cycle;Max_cycle;Signal;HPM_P1;HPM_P2
2022/03/17 00:01:57;;;;;;;22.50;14.37;;;;;;;;;;5057289;28;20169;-75
2022/03/17 00:04:22;;;;;;;24.63;14.57;;;;;;;;;;5052038;28;20265;-75
2022/03/17 00:06:48;;;;;;;21.00;13.90;;;;;;;;;;5063030;28;20191;-75
2022/03/17 00:09:14;;;;;;;20.50;13.43;;;;;;;;;;5059995;28;20181;-75
2022/03/17 00:11:39;;;;;;;19.13;13.30;;;;;;;;;;5053756;28;20202;-75
2022/03/17 00:14:04;;;;;;;22.20;13.67;;;;;;;;;;5049108;28;20230;-75
2022/03/17 00:16:31;;;;;;;22.13;14.37;;;;;;;;;;5035422;28;20181;-75
2022/03/17 00:18:56;;;;;;;21.00;14.03;;;;;;;;;;5038400;28;20208;-75
2022/03/17 00:21:22;;;;;;;20.07;14.33;;;;;;;;;;5011641;28;20181;-75
2022/03/17 00:23:47;;;;;;;22.20;13.87;;;;;;;;;;5037502;28;20188;-75
2022/03/17 00:26:12;;;;;;;20.33;13.93;;;;;;;;;;5017336;28;20222;-76
2022/03/17 00:28:38;;;;;;;24.30;14.93;;;;;;;;;;5032201;28;20186;-75
2022/03/17 00:31:03;;;;;;;20.03;14.37;;;;;;;;;;5020088;28;20206;-75
2022/03/17 00:33:28;;;;;;;23.03;13.63;;;;;;;;;;5011640;28;20273;-75
2022/03/17 00:35:53;;;;;;;19.77;14.30;;;;;;;;;;5018675;28;20170;-75
2022/03/17 00:38:18;;;;;;;22.90;16.17;;;;;;;;;;5025772;28;20178;-75
2022/03/17 00:40:44;;;;;;;22.43;14.50;;;;;;;;;;5011262;28;20186;-75
2022/03/17 00:43:13;;;;;;;23.67;15.50;;;;;;;;;;5039094;28;20188;-75
2022/03/17 00:45:39;;;;;;;21.27;15.10;;;;;;;;;;5010978;28;20183;-75
2022/03/17 00:48:05;;;;;;;21.13;14.60;;;;;;;;;;5029988;28;20183;-75
2022/03/17 00:50:30;;;;;;;22.43;16.07;;;;;;;;;;5032437;28;20267;-75
2022/03/17 00:52:55;;;;;;;20.00;13.87;;;;;;;;;;5011939;28;20178;-75
2022/03/17 00:55:21;;;;;;;22.17;14.67;;;;;;;;;;5021335;28;20197;-75
2022/03/17 00:57:46;;;;;;;19.03;13.57;;;;;;;;;;5028085;28;20195;-75
2022/03/17 01:00:14;;;;;;;22.60;13.97;;;;;;;;;;5028825;28;20309;-75
2022/03/17 01:02:43;;;;;;;26.93;15.60;;;;;;;;;;5029890;28;20250;-75
2022/03/17 01:05:10;;;;;;;18.57;13.13;;;;;;;;;;5013965;28;20296;-75
2022/03/17 01:07:37;;;;;;;24.40;14.00;;;;;;;;;;5026923;28;20184;-75
2022/03/17 01:10:04;;;;;;;23.53;15.10;;;;;;;;;;5010410;28;20198;-75
2022/03/17 01:12:29;;;;;;;18.00;12.60;;;;;;;;;;5010965;28;20197;-75
2022/03/17 01:14:54;;;;;;;27.57;15.47;;;;;;;;;;5033279;28;20178;-75
2022/03/17 01:17:20;;;;;;;21.53;14.10;;;;;;;;;;5034316;28;20181;-75
2022/03/17 01:19:45;;;;;;;20.70;14.17;;;;;;;;;;5032911;28;20189;-75
2022/03/17 01:22:11;;;;;;;19.47;13.80;;;;;;;;;;5032113;28;20194;-75
2022/03/17 01:24:36;;;;;;;19.97;13.97;;;;;;;;;;5047848;28;20179;-75
2022/03/17 01:27:01;;;;;;;20.57;14.20;;;;;;;;;;5025945;28;20241;-75
2022/03/17 01:29:26;;;;;;;21.33;14.20;;;;;;;;;;5042166;28;20206;-75
2022/03/17 01:31:52;;;;;;;23.03;14.03;;;;;;;;;;5047372;28;20194;-75
2022/03/17 01:34:17;;;;;;;26.67;15.23;;;;;;;;;;5029909;28;20182;-75
2022/03/17 01:36:42;;;;;;;21.10;14.83;;;;;;;;;;5047865;28;20209;-75
2022/03/17 01:39:08;;;;;;;26.63;16.73;;;;;;;;;;5028129;28;20297;-75
2022/03/17 01:41:33;;;;;;;22.53;15.67;;;;;;;;;;5048409;28;20186;-75
2022/03/17 01:43:58;;;;;;;21.67;13.87;;;;;;;;;;5031960;28;20581;-75
2022/03/17 01:46:23;;;;;;;21.80;15.77;;;;;;;;;;5030863;28;20186;-75
2022/03/17 01:48:48;;;;;;;23.30;15.60;;;;;;;;;;5046355;28;20219;-75
2022/03/17 01:51:14;;;;;;;23.97;16.00;;;;;;;;;;5047428;28;20230;-75
2022/03/17 01:53:39;;;;;;;25.43;16.30;;;;;;;;;;5034921;28;20184;-75
2022/03/17 01:56:07;;;;;;;24.87;16.10;;;;;;;;;;5033479;28;20417;-75
2022/03/17 01:58:32;;;;;;;21.70;15.00;;;;;;;;;;5056687;28;20176;-75
2022/03/17 02:00:58;;;;;;;24.53;16.80;;;;;;;;;;5031746;28;20183;-75
2022/03/17 02:03:23;;;;;;;28.27;15.70;;;;;;;;;;5044364;28;20209;-75
2022/03/17 02:05:50;;;;;;;24.30;17.17;;;;;;;;;;5047565;28;20188;-75
2022/03/17 02:08:15;;;;;;;23.73;16.07;;;;;;;;;;5049491;28;20176;-75
2022/03/17 02:13:24;;;;;;;26.00;15.83;;;;;;;;;;5047141;28;20278;-73
2022/03/17 02:15:53;;;;;;;22.20;16.53;;;;;;;;;;5029361;28;20176;-73
2022/03/17 02:18:18;;;;;;;24.43;15.83;;;;;;;;;;5033642;28;20209;-74
2022/03/17 02:20:44;;;;;;;23.17;14.50;;;;;;;;;;5026629;28;20200;-73
2022/03/17 02:25:57;;;;;;;23.93;15.83;;;;;;;;;;5046493;28;20279;-73
2022/03/17 02:28:23;;;;;;;24.57;15.03;;;;;;;;;;5029995;28;20191;-74
2022/03/17 02:30:51;;;;;;;22.83;15.37;;;;;;;;;;5030037;28;20212;-74
2022/03/17 02:33:16;;;;;;;28.23;15.60;;;;;;;;;;5047402;28;20174;-73
2022/03/17 02:35:42;;;;;;;20.77;14.93;;;;;;;;;;5044309;28;20180;-74
2022/03/17 02:38:08;;;;;;;23.13;16.03;;;;;;;;;;5044490;28;20172;-73
2022/03/17 02:40:35;;;;;;;22.93;15.47;;;;;;;;;;5029713;28;20177;-73
2022/03/17 02:43:00;;;;;;;23.10;14.83;;;;;;;;;;5031280;28;20184;-73
2022/03/17 02:45:26;;;;;;;24.73;16.27;;;;;;;;;;5047377;28;20184;-73
2022/03/17 02:47:51;;;;;;;21.33;14.73;;;;;;;;;;5044329;28;20185;-73
2022/03/17 02:50:17;;;;;;;24.50;15.57;;;;;;;;;;5028165;28;20212;-73
2022/03/17 02:52:43;;;;;;;25.17;15.27;;;;;;;;;;5025114;28;20181;-73
2022/03/17 02:55:11;;;;;;;22.53;14.23;;;;;;;;;;5042380;28;20178;-73
2022/03/17 02:57:36;;;;;;;20.20;13.83;;;;;;;;;;5047609;28;20282;-73
2022/03/17 03:00:02;;;;;;;22.40;14.60;;;;;;;;;;5044383;28;20436;-73
2022/03/17 03:02:27;;;;;;;25.33;15.33;;;;;;;;;;5030196;28;20268;-73
2022/03/17 03:04:53;;;;;;;22.50;14.80;;;;;;;;;;5045828;28;20441;-73
2022/03/17 03:07:18;;;;;;;22.13;14.87;;;;;;;;;;5045294;28;20228;-73
2022/03/17 03:09:43;;;;;;;20.60;15.20;;;;;;;;;;5028017;28;20174;-73
2022/03/17 03:12:09;;;;;;;24.53;14.83;;;;;;;;;;5045117;28;20189;-73
2022/03/17 03:14:34;;;;;;;22.47;14.93;;;;;;;;;;5026963;28;20230;-73
2022/03/17 03:16:59;;;;;;;20.57;13.80;;;;;;;;;;5029342;28;20182;-73
2022/03/17 03:19:25;;;;;;;25.80;15.93;;;;;;;;;;5051808;28;20182;-73
2022/03/17 03:21:50;;;;;;;25.97;16.50;;;;;;;;;;5029129;28;20180;-73
2022/03/17 03:24:16;;;;;;;26.93;15.33;;;;;;;;;;5029360;28;20232;-73
2022/03/17 03:26:42;;;;;;;22.93;15.20;;;;;;;;;;5026191;28;20276;-73
2022/03/17 03:29:28;;;;;;;23.13;14.13;;;;;;;;;;5045555;28;20204;-73
2022/03/17 03:31:54;;;;;;;23.17;14.50;;;;;;;;;;5041749;28;20216;-73
2022/03/17 03:34:20;;;;;;;21.60;14.37;;;;;;;;;;5045690;28;20213;-73
2022/03/17 03:39:29;;;;;;;24.70;14.97;;;;;;;;;;5044800;28;20193;-74
2022/03/17 03:41:55;;;;;;;22.77;14.67;;;;;;;;;;5029236;28;20185;-73
2022/03/17 03:44:20;;;;;;;21.10;14.40;;;;;;;;;;5043265;28;20257;-73
2022/03/17 03:46:45;;;;;;;20.53;13.37;;;;;;;;;;5049194;28;20193;-73
2022/03/17 03:49:11;;;;;;;22.97;13.77;;;;;;;;;;5025192;28;20196;-73
2022/03/17 03:51:36;;;;;;;19.73;13.50;;;;;;;;;;5029210;28;20201;-73
2022/03/17 03:54:13;;;;;;;19.43;13.53;;;;;;;;;;5048907;28;20638;-73
2022/03/17 03:56:43;;;;;;;18.93;12.27;;;;;;;;;;5031088;28;20177;-73
2022/03/17 03:59:11;;;;;;;18.77;12.13;;;;;;;;;;5049829;28;20186;-73
2022/03/17 04:01:37;;;;;;;18.27;13.07;;;;;;;;;;5049034;28;20189;-73
2022/03/17 04:04:02;;;;;;;19.23;13.20;;;;;;;;;;5053374;28;20204;-73
2022/03/17 04:06:27;;;;;;;21.97;14.57;;;;;;;;;;5034131;28;20217;-73
2022/03/17 04:08:53;;;;;;;19.13;13.20;;;;;;;;;;5031730;28;20195;-73
2022/03/17 04:11:18;;;;;;;22.07;13.47;;;;;;;;;;5048168;28;20205;-73
2022/03/17 04:13:43;;;;;;;21.40;14.07;;;;;;;;;;5049120;28;20222;-73
2022/03/17 04:16:09;;;;;;;23.23;13.53;;;;;;;;;;5050983;28;20212;-73
2022/03/17 04:18:34;;;;;;;22.60;14.00;;;;;;;;;;5030786;28;20269;-73
2022/03/17 04:20:59;;;;;;;23.77;14.63;;;;;;;;;;5050669;28;20178;-73
2022/03/17 04:23:24;;;;;;;24.27;14.30;;;;;;;;;;5036369;28;20189;-73
2022/03/17 04:25:49;;;;;;;22.93;13.83;;;;;;;;;;5049475;28;20182;-73
2022/03/17 04:28:15;;;;;;;20.35;14.07;;;;;;;;;;5034875;28;20464;-73
2022/03/17 04:30:40;;;;;;;20.80;13.03;;;;;;;;;;5048252;28;20217;-73
2022/03/17 04:33:05;;;;;;;20.73;12.83;;;;;;;;;;5050267;28;20186;-74
2022/03/17 04:35:31;;;;;;;17.57;12.77;;;;;;;;;;5047553;28;20172;-73
2022/03/17 04:37:56;;;;;;;21.07;12.90;;;;;;;;;;5034973;28;20237;-73
2022/03/17 04:40:21;;;;;;;29.60;14.97;;;;;;;;;;5031655;28;20241;-74
2022/03/17 04:42:46;;;;;;;22.17;14.13;;;;;;;;;;5030447;28;20217;-73
2022/03/17 04:45:12;;;;;;;16.63;11.30;;;;;;;;;;5050530;28;20212;-73
2022/03/17 04:47:37;;;;;;;18.33;12.80;;;;;;;;;;5028638;28;20216;-73
2022/03/17 04:50:03;;;;;;;21.00;13.43;;;;;;;;;;5035404;28;20210;-73
2022/03/17 04:55:12;;;;;;;22.23;13.67;;;;;;;;;;5043867;28;20195;-73
2022/03/17 04:57:37;;;;;;;20.73;13.30;;;;;;;;;;5032091;28;20174;-73
2022/03/17 05:00:02;;;;;;;21.50;13.47;;;;;;;;;;5034400;28;20181;-73
2022/03/17 05:02:28;;;;;;;17.27;12.33;;;;;;;;;;5031711;28;20200;-73
2022/03/17 05:04:53;;;;;;;16.67;11.67;;;;;;;;;;5037253;28;20281;-73
2022/03/17 05:07:18;;;;;;;17.03;12.30;;;;;;;;;;5035183;28;20185;-73
2022/03/17 05:09:43;;;;;;;20.13;14.23;;;;;;;;;;5030056;28;20261;-73
2022/03/17 05:12:09;;;;;;;22.93;13.83;;;;;;;;;;5032107;28;20175;-73
2022/03/17 05:14:34;;;;;;;21.97;13.03;;;;;;;;;;5023504;28;20229;-73
2022/03/17 05:16:59;;;;;;;22.03;12.73;;;;;;;;;;5046054;28;20178;-73
2022/03/17 05:19:24;;;;;;;20.23;12.53;;;;;;;;;;5053522;28;20173;-74
2022/03/17 05:21:52;;;;;;;15.57;11.13;;;;;;;;;;5050075;28;20385;-73
2022/03/17 05:24:17;;;;;;;19.83;11.73;;;;;;;;;;5039425;28;20185;-73
2022/03/17 05:26:43;;;;;;;17.10;11.27;;;;;;;;;;5035736;28;20293;-73
2022/03/17 05:29:08;;;;;;;22.27;12.80;;;;;;;;;;5042823;28;20264;-73
2022/03/17 05:31:33;;;;;;;21.20;12.98;;;;;;;;;;5024405;28;20450;-73
2022/03/17 05:33:58;;;;;;;18.30;12.17;;;;;;;;;;5026097;28;20267;-73
2022/03/17 05:36:25;;;;;;;19.07;12.50;;;;;;;;;;5046597;28;20227;-73
2022/03/17 05:38:50;;;;;;;20.77;13.03;;;;;;;;;;5039876;28;20238;-73
2022/03/17 05:41:15;;;;;;;22.60;14.47;;;;;;;;;;5027462;28;20275;-73
2022/03/17 05:43:41;;;;;;;19.03;12.03;;;;;;;;;;5043255;28;20269;-73
2022/03/17 05:46:06;;;;;;;18.53;12.10;;;;;;;;;;5031085;28;20180;-73
2022/03/17 05:48:31;;;;;;;17.90;11.97;;;;;;;;;;5053037;28;20273;-73
2022/03/17 05:50:56;;;;;;;18.33;12.80;;;;;;;;;;5035354;28;20200;-73
2022/03/17 05:53:21;;;;;;;24.97;14.37;;;;;;;;;;5032179;28;20211;-73
2022/03/17 05:55:46;;;;;;;23.57;14.53;;;;;;;;;;5049640;28;20174;-73
2022/03/17 05:58:12;;;;;;;20.37;13.63;;;;;;;;;;5045429;28;20173;-73
2022/03/17 06:00:37;;;;;;;27.10;14.13;;;;;;;;;;5042729;28;20176;-73
2022/03/17 06:03:04;;;;;;;15.47;11.50;;;;;;;;;;5043975;28;20209;-73
2022/03/17 06:05:29;;;;;;;27.60;16.83;;;;;;;;;;5043978;28;20202;-73
2022/03/17 06:07:57;;;;;;;18.70;12.03;;;;;;;;;;5050592;28;20249;-73
2022/03/17 06:10:24;;;;;;;16.37;11.50;;;;;;;;;;5033513;28;20236;-73
2022/03/17 06:12:51;;;;;;;17.90;12.80;;;;;;;;;;5048747;28;20303;-72
2022/03/17 06:15:17;;;;;;;19.93;13.73;;;;;;;;;;5051089;28;20195;-73
2022/03/17 06:17:43;;;;;;;20.60;13.13;;;;;;;;;;5048362;28;20185;-73
2022/03/17 06:20:13;;;;;;;21.17;11.77;;;;;;;;;;5048354;28;20192;-73
2022/03/17 06:22:39;;;;;;;21.43;13.07;;;;;;;;;;5046657;28;20189;-73
2022/03/17 06:25:04;;;;;;;19.83;12.30;;;;;;;;;;5049359;28;20235;-73
2022/03/17 06:27:29;;;;;;;20.83;12.60;;;;;;;;;;5051864;28;20189;-73
2022/03/17 06:29:54;;;;;;;23.47;12.93;;;;;;;;;;5032094;28;20185;-73
2022/03/17 06:32:20;;;;;;;26.70;16.83;;;;;;;;;;5049107;28;20216;-73
2022/03/17 06:34:45;;;;;;;25.10;15.57;;;;;;;;;;5052722;28;20457;-73
2022/03/17 06:37:10;;;;;;;19.80;12.17;;;;;;;;;;5031178;28;20174;-73
2022/03/17 06:39:35;;;;;;;18.27;11.80;;;;;;;;;;5044750;28;20377;-73
2022/03/17 06:42:01;;;;;;;22.93;12.73;;;;;;;;;;5031693;28;20187;-73
2022/03/17 06:44:26;;;;;;;20.67;12.73;;;;;;;;;;5031667;28;20193;-73
2022/03/17 06:46:51;;;;;;;21.50;11.50;;;;;;;;;;5030923;28;20178;-73
2022/03/17 06:49:16;;;;;;;26.27;10.90;;;;;;;;;;5048519;28;20268;-73
2022/03/17 06:51:41;;;;;;;12.10;8.03;;;;;;;;;;5031845;28;20205;-73
2022/03/17 06:54:07;;;;;;;16.17;10.63;;;;;;;;;;5023877;28;20209;-73
2022/03/17 06:56:32;;;;;;;19.88;10.65;;;;;;;;;;5025590;28;20185;-75
2022/03/17 06:58:57;;;;;;;15.13;8.27;;;;;;;;;;5046496;28;20193;-75
2022/03/17 07:01:22;;;;;;;21.50;11.60;;;;;;;;;;5027417;28;20188;-75
2022/03/17 07:03:47;;;;;;;19.58;12.05;;;;;;;;;;5030062;28;20216;-75
2022/03/17 07:06:12;;;;;;;14.60;9.97;;;;;;;;;;5047565;28;20184;-75
2022/03/17 07:08:38;;;;;;;18.85;11.63;;;;;;;;;;5049937;28;20182;-75
2022/03/17 07:11:03;;;;;;;16.40;13.23;;;;;;;;;;5030421;28;20217;-75
2022/03/17 07:13:28;;;;;;;17.70;12.67;;;;;;;;;;5049375;28;20220;-75
2022/03/17 07:15:53;;;;;;;20.67;12.97;;;;;;;;;;5037831;28;20170;-75
2022/03/17 07:18:18;;;;;;;23.83;13.53;;;;;;;;;;5049896;28;20219;-75
2022/03/17 07:20:44;;;;;;;13.37;9.67;;;;;;;;;;5033229;28;20188;-75
2022/03/17 07:23:09;;;;;;;15.90;9.50;;;;;;;;;;5029800;28;20614;-75
2022/03/17 07:25:34;;;;;;;23.67;11.37;;;;;;;;;;5045049;28;20187;-75
2022/03/17 07:27:59;;;;;;;17.20;11.20;;;;;;;;;;5032191;28;20170;-75
2022/03/17 07:30:26;;;;;;;14.47;10.10;;;;;;;;;;5046733;28;20262;-75
2022/03/17 07:32:52;;;;;;;16.77;10.40;;;;;;;;;;5052292;28;20179;-75
2022/03/17 07:35:18;;;;;;;17.07;10.53;;;;;;;;;;5034297;28;20181;-75
2022/03/17 07:37:44;;;;;;;23.77;11.77;;;;;;;;;;5036881;28;20201;-75
2022/03/17 07:40:09;;;;;;;22.37;11.83;;;;;;;;;;5034126;28;20190;-74
2022/03/17 07:42:35;;;;;;;16.03;10.37;;;;;;;;;;5029697;28;20182;-75
2022/03/17 07:45:00;;;;;;;14.93;10.90;;;;;;;;;;5054074;28;20207;-75
2022/03/17 07:47:25;;;;;;;20.83;11.93;;;;;;;;;;5059379;28;20256;-75
2022/03/17 07:49:52;;;;;;;21.33;12.73;;;;;;;;;;5056263;28;20224;-75
2022/03/17 07:52:17;;;;;;;21.93;11.73;;;;;;;;;;5062914;28;20265;-75
2022/03/17 07:54:43;;;;;;;19.87;12.83;;;;;;;;;;5035165;28;20269;-75
2022/03/17 07:57:08;;;;;;;22.77;13.63;;;;;;;;;;5051175;28;20171;-75
2022/03/17 07:59:33;;;;;;;23.67;13.40;;;;;;;;;;5037066;28;20184;-75
2022/03/17 08:01:59;;;;;;;20.53;12.30;;;;;;;;;;5048707;28;20239;-75
2022/03/17 08:04:24;;;;;;;22.30;13.90;;;;;;;;;;5035160;28;20194;-75
2022/03/17 08:06:53;;;;;;;26.17;14.27;;;;;;;;;;5052946;28;20174;-75
2022/03/17 08:09:21;;;;;;;24.13;13.00;;;;;;;;;;5049496;28;20178;-75
2022/03/17 08:11:48;;;;;;;23.63;12.47;;;;;;;;;;5034582;28;20198;-75
2022/03/17 08:14:16;;;;;;;24.07;12.20;;;;;;;;;;5032041;28;20303;-75
2022/03/17 08:16:41;;;;;;;17.07;11.97;;;;;;;;;;5033957;28;20178;-75
2022/03/17 08:19:08;;;;;;;19.17;12.40;;;;;;;;;;5049562;28;20310;-75
2022/03/17 08:21:33;;;;;;;25.57;14.07;;;;;;;;;;5059768;28;20186;-75
2022/03/17 08:23:59;;;;;;;25.97;13.70;;;;;;;;;;5034522;28;20179;-75
2022/03/17 08:26:24;;;;;;;23.50;13.97;;;;;;;;;;5043838;28;20193;-75
2022/03/17 08:28:49;;;;;;;19.00;12.40;;;;;;;;;;5056478;28;20179;-73
2022/03/17 08:31:14;;;;;;;20.83;12.50;;;;;;;;;;5034552;28;20376;-73
2022/03/17 08:33:40;;;;;;;22.57;12.77;;;;;;;;;;5045837;28;20319;-73
2022/03/17 08:36:07;;;;;;;25.45;13.70;;;;;;;;;;5055396;28;20184;-73
2022/03/17 08:38:33;;;;;;;25.70;14.47;;;;;;;;;;5037889;28;20206;-73
2022/03/17 08:40:58;;;;;;;19.23;12.73;;;;;;;;;;5051854;28;20174;-73
2022/03/17 08:43:23;;;;;;;23.15;13.73;;;;;;;;;;5046079;28;20189;-73
2022/03/17 08:51:16;;;;;;;24.60;15.93;;;;;;;;;;5051377;28;20208;-73
2022/03/17 08:53:41;;;;;;;25.40;16.20;;;;;;;;;;5039765;28;20170;-73
2022/03/17 08:56:07;;;;;;;28.50;17.97;;;;;;;;;;5031873;28;20182;-73
2022/03/17 08:58:34;;;;;;;27.77;15.50;;;;;;;;;;5031685;28;20241;-73
2022/03/17 09:01:00;;;;;;;21.63;14.37;;;;;;;;;;5032818;28;20265;-73
2022/03/17 09:03:26;;;;;;;29.37;16.97;;;;;;;;;;5033868;28;20281;-73
2022/03/17 09:05:51;;;;;;;27.50;17.10;;;;;;;;;;5032918;28;20185;-73
2022/03/17 09:08:17;;;;;;;22.57;15.73;;;;;;;;;;5037117;28;20198;-73
2022/03/17 09:10:42;;;;;;;27.80;15.83;;;;;;;;;;5051052;28;20289;-73
2022/03/17 09:13:08;;;;;;;26.13;16.67;;;;;;;;;;5034207;28;20218;-73
2022/03/17 09:15:38;;;;;;;25.80;16.07;;;;;;;;;;5035530;28;20171;-73
2022/03/17 09:18:05;;;;;;;32.80;17.40;;;;;;;;;;5035238;28;20167;-73
2022/03/17 09:20:30;;;;;;;27.83;16.57;;;;;;;;;;5042952;28;20186;-73
2022/03/17 09:22:56;;;;;;;23.57;14.93;;;;;;;;;;5040698;28;20178;-73
2022/03/17 09:25:23;;;;;;;20.60;14.07;;;;;;;;;;5028723;28;20182;-73
2022/03/17 09:27:49;;;;;;;18.37;13.13;;;;;;;;;;5049041;28;20166;-73
2022/03/17 09:30:14;;;;;;;20.60;13.57;;;;;;;;;;5056534;28;20220;-73
2022/03/17 09:32:40;;;;;;;21.13;13.17;;;;;;;;;;5039878;28;20170;-73
2022/03/17 09:35:07;;;;;;;22.17;14.57;;;;;;;;;;5046277;28;20181;-73
2022/03/17 09:37:32;;;;;;;26.60;15.70;;;;;;;;;;5045477;28;20177;-73
2022/03/17 09:39:57;;;;;;;26.20;15.37;;;;;;;;;;5037846;28;20174;-73
2022/03/17 09:42:22;;;;;;;25.97;16.30;;;;;;;;;;5033371;28;20174;-73
2022/03/17 09:44:52;;;;;;;21.87;16.93;;;;;;;;;;5032005;28;20182;-73
2022/03/17 09:47:18;;;;;;;23.20;14.73;;;;;;;;;;5040414;28;20214;-73
2022/03/17 09:49:44;;;;;;;21.10;13.33;;;;;;;;;;5031213;28;20198;-73
2022/03/17 09:52:14;;;;;;;19.80;13.60;;;;;;;;;;5038032;28;20206;-73
2022/03/17 09:54:42;;;;;;;24.77;12.47;;;;;;;;;;5052898;28;20178;-73
2022/03/17 09:57:08;;;;;;;15.43;11.13;;;;;;;;;;5044808;28;20280;-73
2022/03/17 09:59:33;;;;;;;20.00;11.77;;;;;;;;;;5029832;28;20182;-73
2022/03/17 10:01:59;;;;;;;19.63;13.07;;;;;;;;;;5046619;28;20205;-73
2022/03/17 10:04:24;;;;;;;23.83;13.03;;;;;;;;;;5049821;28;20229;-73
2022/03/17 10:06:50;;;;;;;22.83;16.10;;;;;;;;;;5046571;28;20178;-73
2022/03/17 10:09:16;;;;;;;24.90;13.73;;;;;;;;;;5030394;28;20300;-73
2022/03/17 10:11:41;;;;;;;29.20;16.50;;;;;;;;;;5039427;28;20189;-73
2022/03/17 10:14:06;;;;;;;31.73;18.87;;;;;;;;;;5029953;28;20224;-73
2022/03/17 10:16:33;;;;;;;26.13;15.20;;;;;;;;;;5033997;28;20201;-73
2022/03/17 10:18:59;;;;;;;21.17;14.57;;;;;;;;;;5038650;28;20316;-73
2022/03/17 10:21:26;;;;;;;29.77;18.00;;;;;;;;;;5052891;28;20225;-73
2022/03/17 10:24:06;;;;;;;20.30;13.80;;;;;;;;;;5047063;28;20178;-73
2022/03/17 10:26:59;;;;;;;24.90;15.80;;;;;;;;;;5033522;28;20296;-73
2022/03/17 10:29:27;;;;;;;25.90;14.87;;;;;;;;;;5042072;28;20206;-73
2022/03/17 10:32:14;;;;;;;27.87;14.50;;;;;;;;;;5049059;28;20207;-73
2022/03/17 10:34:46;;;;;;;26.77;14.63;;;;;;;;;;5030831;28;20517;-73
2022/03/17 10:37:13;;;;;;;24.27;13.30;;;;;;;;;;5033948;28;20198;-73
2022/03/17 10:39:58;;;;;;;24.70;14.37;;;;;;;;;;5042853;28;20209;-73
2022/03/17 10:42:25;;;;;;;24.97;13.17;;;;;;;;;;5045545;28;20414;-73
2022/03/17 10:44:51;;;;;;;21.07;11.93;;;;;;;;;;5036240;28;20175;-73
2022/03/17 10:47:33;;;;;;;24.17;13.67;;;;;;;;;;5031203;28;20187;-75
2022/03/17 10:50:09;;;;;;;27.33;16.23;;;;;;;;;;5052608;28;20198;-75
2022/03/17 10:52:55;;;;;;;26.93;16.63;;;;;;;;;;5052548;28;20180;-75
2022/03/17 10:55:24;;;;;;;24.03;11.93;;;;;;;;;;5031638;28;20233;-75
2022/03/17 10:57:49;;;;;;;32.20;19.63;;;;;;;;;;5048966;28;20177;-75
2022/03/17 11:00:19;;;;;;;28.67;19.70;;;;;;;;;;5044020;28;20184;-75
2022/03/17 11:02:46;;;;;;;29.40;15.47;;;;;;;;;;5034504;28;20178;-75
2022/03/17 11:05:12;;;;;;;14.93;9.60;;;;;;;;;;5034093;28;20229;-72
2022/03/17 11:07:38;;;;;;;24.97;15.27;;;;;;;;;;5046266;28;20210;-75
2022/03/17 11:10:05;;;;;;;24.67;16.73;;;;;;;;;;5037137;28;20181;-75
2022/03/17 11:12:30;;;;;;;34.00;15.30;;;;;;;;;;5011170;28;1090343;-75
2022/03/17 11:14:55;;;;;;;30.83;20.00;;;;;;;;;;5038084;28;20193;-75
2022/03/17 11:17:23;;;;;;;30.17;18.97;;;;;;;;;;5050320;28;20181;-75
2022/03/17 11:19:48;;;;;;;26.67;15.23;;;;;;;;;;5038985;28;20170;-75
2022/03/17 11:22:15;;;;;;;28.67;17.50;;;;;;;;;;5051653;28;20232;-75
2022/03/17 11:24:40;;;;;;;25.13;14.43;;;;;;;;;;5041041;28;20175;-75
2022/03/17 11:27:09;;;;;;;37.73;21.73;;;;;;;;;;5036308;28;20183;-75
2022/03/17 11:29:40;;;;;;;26.33;15.47;;;;;;;;;;5031007;28;20181;-75
2022/03/17 11:32:23;;;;;;;37.47;21.97;;;;;;;;;;5035359;28;20213;-75
2022/03/17 11:34:48;;;;;;;29.77;18.50;;;;;;;;;;5038086;28;20274;-75
2022/03/17 11:37:19;;;;;;;32.63;19.97;;;;;;;;;;5036413;28;20294;-75
2022/03/17 11:39:54;;;;;;;27.43;15.60;;;;;;;;;;5046400;28;20178;-75
2022/03/17 11:42:38;;;;;;;28.07;17.27;;;;;;;;;;5050072;28;20170;-75
2022/03/17 11:45:15;;;;;;;36.80;20.37;;;;;;;;;;5055410;28;20170;-75
2022/03/17 11:47:43;;;;;;;31.53;20.10;;;;;;;;;;5049470;28;20173;-75
2022/03/17 11:50:20;;;;;;;35.67;24.40;;;;;;;;;;5053345;28;20257;-75
2022/03/17 11:52:50;;;;;;;41.23;26.37;;;;;;;;;;5035332;28;20182;-75
2022/03/17 11:55:33;;;;;;;31.43;20.00;;;;;;;;;;5047492;28;20177;-75
2022/03/17 11:58:14;;;;;;;40.37;24.87;;;;;;;;;;5047472;28;20175;-75
2022/03/17 12:00:44;;;;;;;36.50;20.73;;;;;;;;;;5050593;28;20176;-75
2022/03/17 12:03:10;;;;;;;39.70;24.07;;;;;;;;;;5038325;28;20324;-75
2022/03/17 12:05:38;;;;;;;33.10;18.47;;;;;;;;;;5048652;28;20202;-75
2022/03/17 12:08:04;;;;;;;29.40;19.07;;;;;;;;;;5036640;28;20177;-75
2022/03/17 12:10:52;;;;;;;41.63;25.30;;;;;;;;;;5030629;28;20191;-75
2022/03/17 12:13:24;;;;;;;27.67;16.50;;;;;;;;;;5045667;28;20225;-75
2022/03/17 12:15:55;;;;;;;41.50;27.60;;;;;;;;;;5030545;28;20183;-75
2022/03/17 12:18:21;;;;;;;39.90;22.33;;;;;;;;;;5035382;28;20179;-75
2022/03/17 12:20:46;;;;;;;35.13;20.50;;;;;;;;;;5046793;28;20188;-75
2022/03/17 12:23:30;;;;;;;33.67;20.77;;;;;;;;;;5026151;28;20186;-75
2022/03/17 12:26:03;;;;;;;37.37;26.00;;;;;;;;;;5045981;28;20186;-75
2022/03/17 12:28:29;;;;;;;37.13;24.13;;;;;;;;;;5029673;28;20182;-75
2022/03/17 12:30:55;;;;;;;37.97;24.63;;;;;;;;;;5048556;28;20285;-75
2022/03/17 12:33:22;;;;;;;28.90;19.57;;;;;;;;;;5037324;28;20261;-75
2022/03/17 12:36:02;;;;;;;31.20;19.67;;;;;;;;;;5031699;28;20236;-75
2022/03/17 12:38:27;;;;;;;41.13;25.70;;;;;;;;;;5028648;28;20170;-75
2022/03/17 12:40:53;;;;;;;39.90;25.93;;;;;;;;;;5031165;28;20223;-75
2022/03/17 12:43:19;;;;;;;38.13;25.43;;;;;;;;;;5030879;28;20182;-75
2022/03/17 12:45:45;;;;;;;38.17;25.73;;;;;;;;;;5054481;28;20188;-75
2022/03/17 12:48:11;;;;;;;38.70;24.60;;;;;;;;;;5035722;28;20219;-75
2022/03/17 12:50:36;;;;;;;26.47;15.37;;;;;;;;;;5046093;28;20207;-75
2022/03/17 12:53:01;;;;;;;38.60;26.27;;;;;;;;;;5032615;28;20278;-75
2022/03/17 12:55:27;;;;;;;35.67;24.07;;;;;;;;;;5048199;28;20171;-75
2022/03/17 12:57:52;;;;;;;22.43;15.70;;;;;;;;;;5048605;28;20206;-74
2022/03/17 13:00:23;;;;;;;34.10;23.57;;;;;;;;;;5046830;28;20214;-75
2022/03/17 13:02:50;;;;;;;32.70;21.67;;;;;;;;;;5033093;28;20232;-75
2022/03/17 13:07:59;;;;;;;39.90;26.23;;;;;;;;;;5049818;28;20216;-75
2022/03/17 13:10:26;;;;;;;35.27;24.20;;;;;;;;;;5030543;28;20209;-75
2022/03/17 13:15:35;;;;;;;36.30;29.13;;;;;;;;;;5030762;28;20178;-75
2022/03/17 13:18:01;;;;;;;38.30;22.57;;;;;;;;;;5033882;28;20175;-75
2022/03/17 13:20:27;;;;;;;41.87;31.57;;;;;;;;;;5029230;28;20183;-75
2022/03/17 13:22:59;;;;;;;41.77;28.03;;;;;;;;;;5029956;28;20423;-75
2022/03/17 13:25:25;;;;;;;37.03;25.27;;;;;;;;;;5026854;28;21443;-74
2022/03/17 13:28:05;;;;;;;39.27;29.33;;;;;;;;;;4998138;28;20195;-75
2022/03/17 13:30:34;;;;;;;41.93;30.37;;;;;;;;;;5035727;28;20297;-75
2022/03/17 13:33:06;;;;;;;43.37;30.07;;;;;;;;;;5018686;28;20167;-75
2022/03/17 13:35:35;;;;;;;40.57;28.33;;;;;;;;;;5011890;28;20177;-75
2022/03/17 13:38:03;;;;;;;42.77;30.37;;;;;;;;;;5027833;28;20202;-76
2022/03/17 13:40:39;;;;;;;41.20;27.50;;;;;;;;;;5019563;28;20309;-75
2022/03/17 13:43:05;;;;;;;41.30;29.63;;;;;;;;;;5035263;28;20179;-75
2022/03/17 13:45:32;;;;;;;36.20;26.43;;;;;;;;;;5025977;28;20185;-75
2022/03/17 13:48:04;;;;;;;44.30;31.60;;;;;;;;;;5017428;28;20289;-75
2022/03/17 13:50:30;;;;;;;37.10;23.80;;;;;;;;;;5027264;28;20195;-75
2022/03/17 13:52:56;;;;;;;41.93;30.53;;;;;;;;;;5039472;28;20174;-75
2022/03/17 13:55:21;;;;;;;42.47;28.57;;;;;;;;;;5015775;28;20179;-75
2022/03/17 13:57:47;;;;;;;42.70;31.80;;;;;;;;;;5026553;28;20201;-75
2022/03/17 14:00:14;;;;;;;52.10;32.03;;;;;;;;;;5025751;28;20317;-75
2022/03/17 14:02:39;;;;;;;42.83;29.17;;;;;;;;;;5009664;28;20171;-75
2022/03/17 14:05:11;;;;;;;41.60;27.83;;;;;;;;;;5006899;28;20207;-75
2022/03/17 14:07:37;;;;;;;38.67;28.13;;;;;;;;;;5014772;28;20257;-75
2022/03/17 14:10:02;;;;;;;37.60;26.00;;;;;;;;;;5022469;28;20327;-74
2022/03/17 14:12:27;;;;;;;39.53;26.07;;;;;;;;;;5031423;28;20262;-75
2022/03/17 14:14:52;;;;;;;44.23;27.63;;;;;;;;;;5029774;28;20182;-75
2022/03/17 14:17:17;;;;;;;42.87;29.20;;;;;;;;;;5031146;28;20186;-75
2022/03/17 14:19:43;;;;;;;41.47;27.87;;;;;;;;;;5050592;28;20186;-75
2022/03/17 14:24:51;;;;;;;43.40;26.17;;;;;;;;;;5049192;28;20240;-75
2022/03/17 14:27:17;;;;;;;45.80;31.83;;;;;;;;;;5048966;28;20275;-75
2022/03/17 14:29:43;;;;;;;48.33;28.23;;;;;;;;;;5025696;28;20185;-75
2022/03/17 14:32:08;;;;;;;41.53;27.40;;;;;;;;;;5030371;28;20198;-75
2022/03/17 14:34:33;;;;;;;41.00;27.17;;;;;;;;;;5047095;28;20181;-75
2022/03/17 14:36:58;;;;;;;46.33;28.27;;;;;;;;;;5029625;28;20254;-74
2022/03/17 14:39:23;;;;;;;40.43;28.63;;;;;;;;;;5051052;28;21079;-75